createdAt,value
2016-04-12T00:00:33.675Z,8.58
2016-04-12T00:01:47.803Z,8.58
2016-04-12T00:02:33.696Z,8.61
2016-04-12T00:03:34.027Z,8.63
2016-04-12T00:04:33.733Z,8.51
2016-04-12T00:05:33.735Z,8.58
2016-04-12T00:06:33.753Z,8.48
2016-04-12T00:07:33.788Z,8.44
2016-04-12T00:08:33.858Z,8.46
2016-04-12T00:09:33.820Z,8.51
2016-04-12T00:10:33.839Z,8.44
2016-04-12T00:11:33.841Z,8.42
2016-04-12T00:12:33.859Z,8.55
2016-04-12T00:13:33.893Z,8.49
2016-04-12T00:14:33.895Z,8.49
2016-04-12T00:15:33.914Z,8.41
2016-04-12T00:16:33.869Z,8.37
2016-04-12T00:17:33.950Z,8.37
2016-04-12T00:18:33.953Z,8.33
2016-04-12T00:19:33.971Z,8.34
2016-04-12T00:20:34.005Z,8.36
2016-04-12T00:21:34.007Z,8.33
2016-04-12T00:22:34.042Z,8.31
2016-04-12T00:23:34.044Z,8.28
2016-04-12T00:24:34.079Z,8.33
2016-04-12T00:25:34.112Z,8.31
2016-04-12T00:26:34.085Z,8.33
2016-04-12T00:27:34.133Z,8.28
2016-04-12T00:28:34.121Z,8.28
2016-04-12T00:29:34.140Z,8.26
2016-04-12T00:30:34.155Z,8.28
2016-04-12T00:31:34.268Z,8.28
2016-04-12T00:32:37.204Z,8.26
2016-04-12T00:33:34.207Z,8.27
2016-04-12T00:34:34.225Z,8.31
2016-04-12T00:35:34.243Z,8.26
2016-04-12T00:36:34.262Z,8.23
2016-04-12T00:37:34.296Z,8.18
2016-04-12T00:38:34.299Z,8.19
2016-04-12T00:39:34.301Z,8.23
2016-04-12T00:40:34.336Z,8.19
2016-04-12T00:41:34.650Z,8.2
2016-04-12T00:42:34.670Z,8.24
2016-04-12T00:43:34.672Z,8.13
2016-04-12T00:44:34.392Z,8.16
2016-04-12T00:45:34.412Z,8.15
2016-04-12T00:46:34.633Z,8.2
2016-04-12T00:47:34.433Z,8.2
2016-04-12T00:48:34.450Z,8.27
2016-04-12T00:49:34.470Z,8.26
2016-04-12T00:50:34.503Z,8.26
2016-04-12T00:51:34.819Z,8.26
2016-04-12T00:52:34.524Z,8.28
2016-04-12T00:53:34.542Z,8.23
2016-04-12T00:54:34.577Z,8.28
2016-04-12T00:55:34.580Z,8.27
2016-04-12T00:56:34.582Z,8.26
2016-04-12T00:57:34.615Z,8.27
2016-04-12T00:58:34.619Z,8.2
2016-04-12T00:59:34.652Z,8.18
2016-04-12T01:00:34.654Z,8.23
2016-04-12T01:01:34.674Z,8.18
2016-04-12T01:02:34.691Z,8.18
2016-04-12T01:03:34.710Z,8.13
2016-04-12T01:04:34.712Z,8.16
2016-04-12T01:05:34.746Z,8.13
2016-04-12T01:06:34.749Z,8.1
2016-04-12T01:07:34.784Z,8.1
2016-04-12T01:08:34.786Z,8.12
2016-04-12T01:09:34.804Z,8.12
2016-04-12T01:10:34.823Z,8.1
2016-04-12T01:11:34.826Z,8.1
2016-04-12T01:12:34.859Z,8.15
2016-04-12T01:13:34.861Z,8.12
2016-04-12T01:14:34.880Z,8.13
2016-04-12T01:15:34.914Z,8.2
2016-04-12T01:16:34.933Z,8.16
2016-04-12T01:17:34.185Z,8.12
2016-04-12T01:18:34.938Z,8.09
2016-04-12T01:19:34.972Z,8.1
2016-04-12T01:20:34.989Z,8.15
2016-04-12T01:21:34.992Z,8.16
2016-04-12T01:22:34.261Z,8.13
2016-04-12T01:23:35.030Z,8.16
2016-04-12T01:24:35.047Z,8.16
2016-04-12T01:25:35.066Z,8.18
2016-04-12T01:26:35.085Z,8.1
2016-04-12T01:27:35.087Z,8.13
2016-04-12T01:28:35.105Z,8.1
2016-04-12T01:29:35.139Z,8.08
2016-04-12T01:30:35.141Z,8.2
2016-04-12T01:31:35.160Z,8.1
2016-04-12T01:32:34.429Z,8.16
2016-04-12T01:33:35.196Z,8.09
2016-04-12T01:34:35.199Z,8.23
2016-04-12T01:35:35.234Z,8.1
2016-04-12T01:36:35.236Z,8.13
2016-04-12T01:37:35.270Z,8.08
2016-04-12T01:38:35.273Z,8.18
2016-04-12T01:39:35.290Z,8.1
2016-04-12T01:40:35.372Z,8.16
2016-04-12T01:41:35.375Z,8.26
2016-04-12T01:42:35.658Z,8.06
2016-04-12T01:43:35.349Z,8.18
2016-04-12T01:44:35.414Z,8.09
2016-04-12T01:45:35.417Z,8.1
2016-04-12T01:46:35.450Z,8.18
2016-04-12T01:47:35.469Z,8.09
2016-04-12T01:48:35.472Z,8.15
2016-04-12T01:49:35.474Z,8.09
2016-04-12T01:50:35.477Z,8.16
2016-04-12T01:51:35.480Z,8.08
2016-04-12T01:52:35.497Z,8.23
2016-04-12T01:53:35.516Z,8.1
2016-04-12T01:54:35.535Z,8.15
2016-04-12T01:55:35.553Z,8.1
2016-04-12T01:56:35.572Z,8.09
2016-04-12T01:57:35.574Z,8.1
2016-04-12T01:58:35.904Z,8.16
2016-04-12T01:59:35.627Z,8.12
2016-04-12T02:00:35.629Z,8.16
2016-04-12T02:01:35.647Z,8.19
2016-04-12T02:02:35.666Z,8.16
2016-04-12T02:03:35.668Z,8.15
2016-04-12T02:04:35.687Z,8.15
2016-04-12T02:05:35.720Z,8.19
2016-04-12T02:06:35.567Z,8.15
2016-04-12T02:07:35.741Z,8.15
2016-04-12T02:08:35.759Z,8.16
2016-04-12T02:09:35.778Z,8.06
2016-04-12T02:10:35.639Z,8.19
2016-04-12T02:11:35.064Z,8.06
2016-04-12T02:12:35.817Z,8.06
2016-04-12T02:13:49.929Z,8.12
2016-04-12T02:14:35.853Z,8.12
2016-04-12T02:15:35.872Z,8.09
2016-04-12T02:16:35.906Z,8.12
2016-04-12T02:17:35.909Z,8.09
2016-04-12T02:18:35.912Z,8.15
2016-04-12T02:19:35.930Z,8.05
2016-04-12T02:20:35.964Z,8.15
2016-04-12T02:21:35.967Z,8.12
2016-04-12T02:22:35.985Z,8.13
2016-04-12T02:23:36.003Z,8.12
2016-04-12T02:24:36.022Z,8.12
2016-04-12T02:25:36.024Z,8.06
2016-04-12T02:26:36.042Z,8.13
2016-04-12T02:27:36.060Z,8.08
2016-04-12T02:28:36.079Z,8.1
2016-04-12T02:29:36.097Z,8.09
2016-04-12T02:30:36.099Z,8.06
2016-04-12T02:31:36.134Z,8.13
2016-04-12T02:32:36.137Z,8.05
2016-04-12T02:33:50.249Z,8.13
2016-04-12T02:34:36.174Z,8.06
2016-04-12T02:35:36.192Z,8.12
2016-04-12T02:36:36.210Z,8
2016-04-12T02:37:50.307Z,8.01
2016-04-12T02:38:36.231Z,8.03
2016-04-12T02:39:36.249Z,8.13
2016-04-12T02:40:36.268Z,8.1
2016-04-12T02:41:36.286Z,8.08
2016-04-12T02:42:36.601Z,8.09
2016-04-12T02:43:36.323Z,8
2016-04-12T02:44:36.341Z,8.06
2016-04-12T02:45:36.359Z,8.1
2016-04-12T02:46:36.378Z,8.05
2016-04-12T02:47:36.677Z,8.08
2016-04-12T02:48:36.414Z,7.95
2016-04-12T02:49:36.729Z,8.03
2016-04-12T02:50:36.419Z,8.09
2016-04-12T02:51:36.750Z,8.12
2016-04-12T02:52:36.456Z,8.12
2016-04-12T02:53:36.536Z,8
2016-04-12T02:54:36.492Z,8.03
2016-04-12T02:55:36.511Z,7.97
2016-04-12T02:56:36.529Z,8
2016-04-12T02:57:36.532Z,7.91
2016-04-12T02:58:36.549Z,8.01
2016-04-12T02:59:36.584Z,8
2016-04-12T03:00:36.587Z,8.05
2016-04-12T03:01:50.699Z,7.93
2016-04-12T03:02:36.638Z,7.93
2016-04-12T03:03:36.641Z,8.03
2016-04-12T03:04:36.660Z,7.91
2016-04-12T03:05:36.678Z,7.95
2016-04-12T03:06:36.681Z,7.98
2016-04-12T03:07:36.715Z,7.98
2016-04-12T03:08:36.733Z,7.93
2016-04-12T03:09:36.736Z,8.01
2016-04-12T03:10:36.754Z,7.98
2016-04-12T03:11:37.085Z,7.95
2016-04-12T03:12:36.776Z,7.94
2016-04-12T03:13:36.793Z,7.85
2016-04-12T03:14:36.828Z,7.94
2016-04-12T03:15:36.830Z,7.91
2016-04-12T03:16:36.864Z,7.87
2016-04-12T03:17:36.867Z,7.87
2016-04-12T03:18:36.885Z,7.94
2016-04-12T03:19:36.748Z,7.87
2016-04-12T03:20:36.923Z,7.8
2016-04-12T03:21:37.237Z,7.88
2016-04-12T03:22:36.943Z,7.83
2016-04-12T03:23:36.961Z,7.85
2016-04-12T03:24:36.980Z,7.83
2016-04-12T03:25:36.983Z,7.93
2016-04-12T03:26:37.000Z,7.91
2016-04-12T03:27:36.269Z,7.91
2016-04-12T03:28:37.037Z,8
2016-04-12T03:29:37.055Z,7.97
2016-04-12T03:30:37.074Z,7.98
2016-04-12T03:31:37.091Z,8.06
2016-04-12T03:32:37.094Z,8.13
2016-04-12T03:33:37.113Z,8.24
2016-04-12T03:34:37.147Z,8.12
2016-04-12T03:35:37.149Z,8.13
2016-04-12T03:36:37.184Z,8.13
2016-04-12T03:37:37.187Z,8.15
2016-04-12T03:38:37.221Z,8.24
2016-04-12T03:39:37.224Z,8.27
2016-04-12T03:40:37.241Z,8.31
2016-04-12T03:41:37.260Z,8.31
2016-04-12T03:42:37.278Z,8.3
2016-04-12T03:43:40.296Z,8.28
2016-04-12T03:44:37.299Z,8.31
2016-04-12T03:45:37.333Z,8.37
2016-04-12T03:46:37.336Z,8.3
2016-04-12T03:47:37.353Z,8.31
2016-04-12T03:48:37.356Z,8.28
2016-04-12T03:49:37.375Z,8.31
2016-04-12T03:50:37.408Z,8.26
2016-04-12T03:51:37.411Z,8.26
2016-04-12T03:52:37.445Z,8.2
2016-04-12T03:53:37.433Z,8.23
2016-04-12T03:54:37.764Z,8.2
2016-04-12T03:55:37.485Z,8.15
2016-04-12T03:56:37.503Z,8.15
2016-04-12T03:57:37.521Z,8.16
2016-04-12T03:58:37.525Z,8.13
2016-04-12T03:59:37.542Z,8.19
2016-04-12T04:00:36.811Z,8.09
2016-04-12T04:01:37.579Z,8.15
2016-04-12T04:02:37.597Z,8.05
2016-04-12T04:03:37.616Z,8.1
2016-04-12T04:04:38.291Z,8.06
2016-04-12T04:05:37.652Z,8.08
2016-04-12T04:06:37.639Z,8.08
2016-04-12T04:07:36.923Z,8.12
2016-04-12T04:08:37.692Z,8
2016-04-12T04:09:37.710Z,8.03
2016-04-12T04:10:37.744Z,7.97
2016-04-12T04:11:37.731Z,8.01
2016-04-12T04:12:37.765Z,8.06
2016-04-12T04:13:37.768Z,7.9
2016-04-12T04:14:37.786Z,7.98
2016-04-12T04:15:37.820Z,7.98
2016-04-12T04:16:38.103Z,7.9
2016-04-12T04:17:37.826Z,7.95
2016-04-12T04:18:37.859Z,7.9
2016-04-12T04:19:37.878Z,7.93
2016-04-12T04:20:37.880Z,7.91
2016-04-12T04:21:37.898Z,7.93
2016-04-12T04:22:37.917Z,7.91
2016-04-12T04:23:37.950Z,7.91
2016-04-12T04:24:37.969Z,7.82
2016-04-12T04:25:37.956Z,7.94
2016-04-12T04:26:37.975Z,7.83
2016-04-12T04:27:37.992Z,7.8
2016-04-12T04:28:38.011Z,7.88
2016-04-12T04:29:38.030Z,7.91
2016-04-12T04:30:38.047Z,7.9
2016-04-12T04:31:38.050Z,7.97
2016-04-12T04:32:38.147Z,7.94
2016-04-12T04:33:38.102Z,7.94
2016-04-12T04:34:38.105Z,7.91
2016-04-12T04:35:38.123Z,8.01
2016-04-12T04:36:38.127Z,8.01
2016-04-12T04:37:38.160Z,8.09
2016-04-12T04:38:38.194Z,8.13
2016-04-12T04:39:38.182Z,8.15
2016-04-12T04:40:38.199Z,8.12
2016-04-12T04:41:38.234Z,8.13
2016-04-12T04:42:38.252Z,8.15
2016-04-12T04:43:38.239Z,8.27
2016-04-12T04:44:38.273Z,8.26
2016-04-12T04:45:38.291Z,8.3
2016-04-12T04:46:38.309Z,8.31
2016-04-12T04:47:37.656Z,8.34
2016-04-12T04:48:38.331Z,8.38
2016-04-12T04:49:38.365Z,8.41
2016-04-12T04:50:38.367Z,8.49
2016-04-12T04:51:38.401Z,8.52
2016-04-12T04:52:38.388Z,8.49
2016-04-12T04:53:38.407Z,8.45
2016-04-12T04:54:38.425Z,8.56
2016-04-12T04:55:38.459Z,8.56
2016-04-12T04:56:38.492Z,8.6
2016-04-12T04:57:38.494Z,8.58
2016-04-12T04:58:38.498Z,8.56
2016-04-12T04:59:38.516Z,8.64
2016-04-12T05:00:38.519Z,8.63
2016-04-12T05:01:38.538Z,8.63
2016-04-12T05:02:37.883Z,8.79
2016-04-12T05:03:38.574Z,8.79
2016-04-12T05:04:38.592Z,8.79
2016-04-12T05:05:38.611Z,8.84
2016-04-12T05:06:38.629Z,8.89
2016-04-12T05:07:38.647Z,8.92
2016-04-12T05:08:38.713Z,8.99
2016-04-12T05:09:38.685Z,8.95
2016-04-12T05:10:38.696Z,8.99
2016-04-12T05:11:38.698Z,9
2016-04-12T05:12:38.718Z,9
2016-04-12T05:13:38.751Z,9
2016-04-12T05:14:38.753Z,8.92
2016-04-12T05:15:38.773Z,8.95
2016-04-12T05:16:38.806Z,9
2016-04-12T05:17:38.918Z,8.94
2016-04-12T05:18:38.811Z,9
2016-04-12T05:19:38.877Z,8.92
2016-04-12T05:20:38.911Z,8.99
2016-04-12T05:21:38.913Z,9
2016-04-12T05:22:38.916Z,9.13
2016-04-12T05:23:38.903Z,9.04
2016-04-12T05:24:38.922Z,9.04
2016-04-12T05:25:38.956Z,9.11
2016-04-12T05:26:38.958Z,9.16
2016-04-12T05:27:38.977Z,9.11
2016-04-12T05:28:38.994Z,9.32
2016-04-12T05:29:38.997Z,9.22
2016-04-12T05:30:39.016Z,9.28
2016-04-12T05:31:39.049Z,9.32
2016-04-12T05:32:39.068Z,9.39
2016-04-12T05:33:39.101Z,9.4
2016-04-12T05:34:39.089Z,9.39
2016-04-12T05:35:39.107Z,9.36
2016-04-12T05:36:39.140Z,9.39
2016-04-12T05:37:39.144Z,9.47
2016-04-12T05:38:39.162Z,9.43
2016-04-12T05:39:39.056Z,9.48
2016-04-12T05:40:39.199Z,9.5
2016-04-12T05:41:39.217Z,9.48
2016-04-12T05:42:39.235Z,9.48
2016-04-12T05:43:39.253Z,9.58
2016-04-12T05:44:39.257Z,9.51
2016-04-12T05:45:39.118Z,9.61
2016-04-12T05:46:39.293Z,9.54
2016-04-12T05:47:39.327Z,9.65
2016-04-12T05:48:39.330Z,9.66
2016-04-12T05:49:39.348Z,9.64
2016-04-12T05:50:39.366Z,9.58
2016-04-12T05:51:39.369Z,9.61
2016-04-12T05:52:39.387Z,9.68
2016-04-12T05:53:39.406Z,9.68
2016-04-12T05:54:39.439Z,9.69
2016-04-12T05:55:39.458Z,9.68
2016-04-12T05:56:39.461Z,9.69
2016-04-12T05:57:39.494Z,9.69
2016-04-12T05:58:39.513Z,9.82
2016-04-12T05:59:39.516Z,9.72
2016-04-12T06:00:39.518Z,9.92
2016-04-12T06:01:39.552Z,9.86
2016-04-12T06:02:39.555Z,9.91
2016-04-12T06:03:39.589Z,10.02
2016-04-12T06:04:39.607Z,10.07
2016-04-12T06:05:39.609Z,10.09
2016-04-12T06:06:39.629Z,10.16
2016-04-12T06:07:39.646Z,10.28
2016-04-12T06:08:39.665Z,10.25
2016-04-12T06:09:39.699Z,10.34
2016-04-12T06:10:39.701Z,10.42
2016-04-12T06:11:39.735Z,10.57
2016-04-12T06:12:39.737Z,10.67
2016-04-12T06:13:39.756Z,10.67
2016-04-12T06:14:39.790Z,10.81
2016-04-12T06:15:39.793Z,10.69
2016-04-12T06:16:39.795Z,10.71
2016-04-12T06:17:39.829Z,10.74
2016-04-12T06:18:39.832Z,10.96
2016-04-12T06:19:39.866Z,10.93
2016-04-12T06:20:39.869Z,10.97
2016-04-12T06:21:39.887Z,11.05
2016-04-12T06:22:39.968Z,11.07
2016-04-12T06:23:39.939Z,11.23
2016-04-12T06:24:39.958Z,11.23
2016-04-12T06:25:39.961Z,11.35
2016-04-12T06:26:40.010Z,11.35
2016-04-12T06:27:39.996Z,11.33
2016-04-12T06:28:40.031Z,11.4
2016-04-12T06:29:40.049Z,11.33
2016-04-12T06:30:40.052Z,11.33
2016-04-12T06:31:40.086Z,11.36
2016-04-12T06:32:40.104Z,11.37
2016-04-12T06:33:40.107Z,11.37
2016-04-12T06:34:40.141Z,11.4
2016-04-12T06:35:40.144Z,11.43
2016-04-12T06:36:40.177Z,11.55
2016-04-12T06:37:40.196Z,11.73
2016-04-12T06:38:40.215Z,12.03
2016-04-12T06:39:40.218Z,12.17
2016-04-12T06:40:40.251Z,12.32
2016-04-12T06:41:40.268Z,12.45
2016-04-12T06:42:40.287Z,12.49
2016-04-12T06:43:40.290Z,12.62
2016-04-12T06:44:40.324Z,12.68
2016-04-12T06:45:40.342Z,12.68
2016-04-12T06:46:40.407Z,12.7
2016-04-12T06:47:40.364Z,12.72
2016-04-12T06:48:40.397Z,12.79
2016-04-12T06:49:40.415Z,12.9
2016-04-12T06:50:40.434Z,13
2016-04-12T06:51:40.453Z,13.13
2016-04-12T06:52:40.470Z,13.08
2016-04-12T06:53:40.505Z,13.12
2016-04-12T06:54:40.523Z,13.05
2016-04-12T06:55:40.511Z,13.03
2016-04-12T06:56:40.544Z,13.05
2016-04-12T06:57:40.562Z,12.95
2016-04-12T06:58:40.580Z,13
2016-04-12T06:59:40.614Z,12.93
2016-04-12T07:00:40.616Z,12.82
2016-04-12T07:01:40.651Z,12.76
2016-04-12T07:02:40.700Z,12.67
2016-04-12T07:03:40.719Z,12.76
2016-04-12T07:04:40.705Z,12.72
2016-04-12T07:05:40.724Z,12.67
2016-04-12T07:06:40.743Z,12.78
2016-04-12T07:07:40.792Z,12.64
2016-04-12T07:08:40.779Z,12.75
2016-04-12T07:09:40.798Z,12.68
2016-04-12T07:10:40.815Z,12.75
2016-04-12T07:11:40.849Z,12.82
2016-04-12T07:12:40.837Z,12.75
2016-04-12T07:13:40.871Z,12.82
2016-04-12T07:14:40.889Z,12.78
2016-04-12T07:15:40.907Z,12.78
2016-04-12T07:16:40.926Z,12.87
2016-04-12T07:17:40.959Z,12.8
2016-04-12T07:18:40.962Z,12.86
2016-04-12T07:19:41.012Z,12.93
2016-04-12T07:20:41.015Z,12.94
2016-04-12T07:21:41.173Z,12.91
2016-04-12T07:22:41.036Z,12.87
2016-04-12T07:23:41.069Z,12.9
2016-04-12T07:24:41.088Z,12.94
2016-04-12T07:25:41.106Z,12.97
2016-04-12T07:26:41.125Z,13.04
2016-04-12T07:27:41.127Z,13.12
2016-04-12T07:28:41.177Z,13.16
2016-04-12T07:29:41.195Z,13.11
2016-04-12T07:30:41.197Z,13.15
2016-04-12T07:31:41.216Z,13.16
2016-04-12T07:32:41.250Z,13.35
2016-04-12T07:33:41.269Z,13.25
2016-04-12T07:34:41.286Z,13.38
2016-04-12T07:35:41.304Z,13.22
2016-04-12T07:36:41.308Z,13.27
2016-04-12T07:37:41.341Z,13.35
2016-04-12T07:38:41.360Z,13.39
2016-04-12T07:39:41.363Z,13.22
2016-04-12T07:40:41.427Z,13.27
2016-04-12T07:41:41.496Z,13.28
2016-04-12T07:42:41.500Z,13.18
2016-04-12T07:43:41.551Z,13.27
2016-04-12T07:44:40.882Z,13.28
2016-04-12T07:45:41.684Z,13.27
2016-04-12T07:46:41.764Z,13.35
2016-04-12T07:47:41.784Z,13.37
2016-04-12T07:48:41.818Z,13.53
2016-04-12T07:49:41.870Z,13.57
2016-04-12T07:50:41.906Z,13.7
2016-04-12T07:51:41.941Z,13.72
2016-04-12T07:52:41.965Z,13.71
2016-04-12T07:53:41.989Z,13.81
2016-04-12T07:54:42.029Z,13.85
2016-04-12T07:55:42.038Z,13.99
2016-04-12T07:56:42.078Z,14
2016-04-12T07:57:41.333Z,14.07
2016-04-12T07:58:42.120Z,14.2
2016-04-12T07:59:42.140Z,14.3
2016-04-12T08:00:42.160Z,14.3
2016-04-12T08:01:42.181Z,14.32
2016-04-12T08:02:42.044Z,14.48
2016-04-12T08:03:42.235Z,14.5
2016-04-12T08:04:42.254Z,14.59
2016-04-12T08:05:42.288Z,14.55
2016-04-12T08:06:42.277Z,14.73
2016-04-12T08:07:42.311Z,14.82
2016-04-12T08:08:42.334Z,14.84
2016-04-12T08:09:42.352Z,14.89
2016-04-12T08:10:42.372Z,14.81
2016-04-12T08:11:42.406Z,15.02
2016-04-12T08:12:42.408Z,15
2016-04-12T08:13:42.442Z,15.09
2016-04-12T08:14:42.466Z,15.24
2016-04-12T08:15:42.469Z,15.21
2016-04-12T08:16:42.503Z,15.35
2016-04-12T08:17:42.521Z,15.24
2016-04-12T08:18:42.538Z,15.39
2016-04-12T08:19:42.542Z,15.51
2016-04-12T08:20:42.591Z,15.4
2016-04-12T08:21:42.610Z,15.39
2016-04-12T08:22:42.612Z,15.52
2016-04-12T08:23:42.647Z,15.7
2016-04-12T08:24:42.696Z,15.76
2016-04-12T08:25:43.354Z,15.92
2016-04-12T08:26:42.701Z,15.91
2016-04-12T08:27:42.719Z,15.95
2016-04-12T08:28:42.754Z,15.91
2016-04-12T08:29:42.772Z,15.76
2016-04-12T08:30:42.790Z,15.67
2016-04-12T08:31:42.793Z,15.44
2016-04-12T08:32:42.842Z,15.39
2016-04-12T08:33:42.845Z,15.29
2016-04-12T08:34:42.895Z,15.24
2016-04-12T08:35:42.898Z,15.19
2016-04-12T08:36:42.915Z,14.99
2016-04-12T08:37:42.950Z,15
2016-04-12T08:38:42.200Z,15
2016-04-12T08:39:42.987Z,15
2016-04-12T08:40:42.989Z,14.92
2016-04-12T08:41:43.054Z,14.81
2016-04-12T08:42:43.104Z,14.86
2016-04-12T08:43:43.075Z,14.94
2016-04-12T08:44:43.078Z,15.19
2016-04-12T08:45:43.097Z,15.28
2016-04-12T08:46:43.130Z,15.36
2016-04-12T08:47:43.148Z,15.43
2016-04-12T08:48:43.183Z,15.59
2016-04-12T08:49:43.185Z,15.54
2016-04-12T08:50:43.219Z,15.55
2016-04-12T08:51:43.222Z,15.51
2016-04-12T08:52:43.271Z,15.4
2016-04-12T08:53:43.305Z,15.27
2016-04-12T08:54:43.292Z,15.33
2016-04-12T08:55:43.311Z,15.24
2016-04-12T08:56:43.329Z,15.18
2016-04-12T08:57:43.363Z,15.22
2016-04-12T08:58:47.428Z,15.07
2016-04-12T09:00:51.230Z,15.19
2016-04-12T09:02:02.061Z,15.17
2016-04-12T09:03:31.485Z,15.21
2016-04-12T09:05:35.881Z,15.18
2016-04-12T09:06:32.712Z,15.31
2016-04-12T09:07:10.840Z,15.35
2016-04-12T09:08:25.499Z,15.17
2016-04-12T09:10:12.275Z,15.15
2016-04-12T09:10:41.056Z,15.15
2016-04-12T09:11:41.075Z,15.19
2016-04-12T09:12:50.080Z,15.33
2016-04-12T09:13:41.033Z,15.37
2016-04-12T09:14:41.051Z,15.42
2016-04-12T09:15:41.069Z,15.49
2016-04-12T09:16:41.088Z,15.61
2016-04-12T09:17:41.106Z,15.58
2016-04-12T09:18:40.984Z,15.59
2016-04-12T09:19:41.158Z,15.7
2016-04-12T09:20:41.177Z,15.77
2016-04-12T09:21:41.194Z,15.7
2016-04-12T09:22:41.229Z,15.79
2016-04-12T09:23:41.247Z,15.82
2016-04-12T09:24:41.250Z,15.75
2016-04-12T09:25:41.268Z,15.97
2016-04-12T09:26:41.287Z,16.01
2016-04-12T09:27:41.336Z,16.09
2016-04-12T09:28:41.338Z,16.15
2016-04-12T09:29:41.373Z,16.16
2016-04-12T09:30:41.376Z,16.32
2016-04-12T09:31:41.410Z,16.35
2016-04-12T09:32:41.428Z,16.51
2016-04-12T09:33:41.368Z,16.57
2016-04-12T09:34:41.465Z,16.61
2016-04-12T09:35:41.499Z,16.61
2016-04-12T09:36:41.517Z,16.56
2016-04-12T09:37:41.520Z,16.58
2016-04-12T09:38:41.553Z,16.74
2016-04-12T09:39:41.572Z,16.93
2016-04-12T09:40:41.606Z,16.94
2016-04-12T09:41:41.624Z,17.05
2016-04-12T09:42:41.642Z,17.15
2016-04-12T09:43:41.676Z,17.23
2016-04-12T09:44:41.741Z,17.27
2016-04-12T09:45:41.713Z,17.27
2016-04-12T09:46:41.747Z,17.29
2016-04-12T09:47:41.765Z,17.27
2016-04-12T09:48:41.611Z,17.38
2016-04-12T09:49:41.802Z,17.26
2016-04-12T09:50:41.820Z,17.12
2016-04-12T09:51:41.838Z,17.04
2016-04-12T09:52:41.871Z,17.06
2016-04-12T09:53:41.890Z,16.9
2016-04-12T09:54:41.925Z,16.96
2016-04-12T09:55:41.943Z,16.87
2016-04-12T09:56:41.961Z,16.81
2016-04-12T09:57:41.979Z,16.75
2016-04-12T09:58:42.013Z,16.81
2016-04-12T09:59:42.032Z,16.74
2016-04-12T10:00:42.035Z,16.72
2016-04-12T10:01:42.085Z,16.76
2016-04-12T10:02:42.149Z,16.61
2016-04-12T10:03:42.167Z,16.75
2016-04-12T10:04:42.139Z,16.78
2016-04-12T10:05:42.142Z,16.87
2016-04-12T10:06:42.159Z,17.06
2016-04-12T10:07:42.210Z,17.14
2016-04-12T10:08:42.243Z,17.27
2016-04-12T10:09:42.246Z,17.29
2016-04-12T10:10:42.264Z,17.27
2016-04-12T10:11:42.283Z,17.36
2016-04-12T10:12:42.301Z,17.42
2016-04-12T10:13:42.334Z,17.23
2016-04-12T10:14:42.337Z,17.14
2016-04-12T10:15:42.371Z,16.97
2016-04-12T10:16:42.390Z,16.84
2016-04-12T10:17:42.424Z,16.81
2016-04-12T10:18:56.444Z,16.78
2016-04-12T10:19:42.460Z,16.74
2016-04-12T10:20:42.494Z,16.81
2016-04-12T10:21:42.497Z,16.96
2016-04-12T10:22:42.531Z,16.9
2016-04-12T10:23:42.550Z,17.14
2016-04-12T10:24:42.568Z,17.15
2016-04-12T10:25:42.585Z,17.22
2016-04-12T10:26:42.604Z,17.08
2016-04-12T10:27:42.622Z,17.19
2016-04-12T10:28:42.657Z,17.16
2016-04-12T10:29:42.706Z,17.19
2016-04-12T10:30:42.709Z,17.27
2016-04-12T10:31:42.727Z,17.23
2016-04-12T10:32:41.995Z,17.36
2016-04-12T10:33:42.857Z,17.3
2016-04-12T10:34:42.798Z,17.24
2016-04-12T10:35:42.862Z,17.27
2016-04-12T10:36:43.101Z,17.24
2016-04-12T10:37:42.884Z,17.31
2016-04-12T10:38:42.871Z,17.44
2016-04-12T10:39:42.936Z,17.39
2016-04-12T10:40:42.970Z,17.45
2016-04-12T10:41:42.956Z,17.48
2016-04-12T10:42:42.975Z,17.59
2016-04-12T10:43:42.995Z,17.7
2016-04-12T10:44:43.028Z,17.85
2016-04-12T10:45:43.046Z,17.89
2016-04-12T10:46:43.080Z,17.97
2016-04-12T10:47:43.083Z,17.97
2016-04-12T10:48:43.117Z,18.03
2016-04-12T10:49:43.120Z,18.11
2016-04-12T10:50:43.169Z,18.08
2016-04-12T10:51:43.186Z,18.13
2016-04-12T10:52:43.190Z,18.03
2016-04-12T10:53:43.239Z,17.89
2016-04-12T10:54:43.274Z,17.85
2016-04-12T10:55:43.292Z,17.85
2016-04-12T10:56:43.310Z,17.87
2016-04-12T10:57:43.297Z,18.01
2016-04-12T10:58:43.346Z,18.08
2016-04-12T10:59:43.365Z,18.19
2016-04-12T11:00:43.399Z,18.29
2016-04-12T11:01:43.401Z,18.34
2016-04-12T11:02:43.435Z,18.22
2016-04-12T11:03:43.454Z,18.34
2016-04-12T11:04:43.471Z,18.41
2016-04-12T11:05:43.490Z,18.38
2016-04-12T11:06:43.524Z,18.49
2016-04-12T11:07:43.542Z,18.43
2016-04-12T11:08:43.576Z,18.43
2016-04-12T11:09:43.580Z,18.31
2016-04-12T11:10:43.613Z,18.2
2016-04-12T11:11:43.678Z,18.01
2016-04-12T11:12:43.681Z,17.87
2016-04-12T11:13:43.730Z,17.85
2016-04-12T11:14:42.984Z,17.59
2016-04-12T11:15:43.720Z,17.64
2016-04-12T11:16:43.754Z,17.51
2016-04-12T11:17:43.772Z,17.59
2016-04-12T11:18:43.791Z,17.63
2016-04-12T11:19:43.809Z,17.6
2016-04-12T11:20:43.843Z,17.71
2016-04-12T11:21:43.861Z,17.65
2016-04-12T11:22:43.895Z,17.57
2016-04-12T11:23:43.898Z,17.52
2016-04-12T11:24:43.933Z,17.41
2016-04-12T11:25:44.232Z,17.34
2016-04-12T11:26:43.969Z,17.22
2016-04-12T11:27:43.987Z,17.27
2016-04-12T11:28:44.021Z,17.34
2016-04-12T11:29:44.055Z,17.38
2016-04-12T11:30:43.902Z,17.42
2016-04-12T11:31:44.092Z,17.46
2016-04-12T11:32:44.125Z,17.56
2016-04-12T11:33:44.144Z,17.64
2016-04-12T11:34:44.163Z,17.74
2016-04-12T11:35:44.165Z,17.87
2016-04-12T11:36:44.215Z,17.89
2016-04-12T11:37:44.217Z,17.85
2016-04-12T11:38:44.267Z,17.83
2016-04-12T11:39:44.253Z,17.89
2016-04-12T11:40:44.303Z,17.94
2016-04-12T11:41:44.321Z,17.9
2016-04-12T11:42:44.339Z,17.9
2016-04-12T11:43:44.358Z,17.9
2016-04-12T11:44:44.393Z,17.82
2016-04-12T11:45:44.395Z,17.78
2016-04-12T11:46:44.444Z,17.82
2016-04-12T11:47:44.462Z,18.05
2016-04-12T11:48:44.481Z,18.16
2016-04-12T11:49:44.484Z,18.23
2016-04-12T11:50:46.424Z,18.23
2016-04-12T11:51:44.552Z,18.28
2016-04-12T11:52:44.569Z,18.37
2016-04-12T11:53:44.588Z,18.28
2016-04-12T11:54:58.703Z,18.44
2016-04-12T11:55:44.688Z,18.47
2016-04-12T11:56:44.690Z,18.43
2016-04-12T11:57:44.693Z,18.37
2016-04-12T11:58:44.711Z,18.43
2016-04-12T11:59:44.730Z,18.6
2016-04-12T12:00:44.748Z,18.7
2016-04-12T12:01:44.782Z,18.68
2016-04-12T12:02:44.800Z,18.68
2016-04-12T12:03:44.818Z,18.77
2016-04-12T12:04:44.837Z,18.81
2016-04-12T12:05:44.871Z,18.73
2016-04-12T12:06:44.888Z,18.56
2016-04-12T12:07:44.923Z,18.45
2016-04-12T12:08:44.941Z,18.35
2016-04-12T12:09:44.943Z,18.4
2016-04-12T12:10:44.993Z,18.38
2016-04-12T12:11:45.011Z,18.47
2016-04-12T12:12:45.045Z,18.53
2016-04-12T12:13:45.049Z,18.58
2016-04-12T12:14:45.082Z,18.59
2016-04-12T12:15:45.100Z,18.75
2016-04-12T12:16:45.103Z,18.84
2016-04-12T12:17:45.137Z,18.92
2016-04-12T12:18:45.171Z,19.07
2016-04-12T12:19:45.190Z,19.16
2016-04-12T12:20:45.223Z,19.37
2016-04-12T12:21:45.226Z,19.39
2016-04-12T12:22:45.261Z,19.29
2016-04-12T12:23:45.278Z,19
2016-04-12T12:24:45.312Z,18.98
2016-04-12T12:25:44.581Z,19.02
2016-04-12T12:26:45.364Z,19.02
2016-04-12T12:27:45.367Z,19.14
2016-04-12T12:28:45.417Z,19.34
2016-04-12T12:29:45.435Z,19.37
2016-04-12T12:30:45.453Z,19.44
2016-04-12T12:31:45.472Z,19.58
2016-04-12T12:32:45.505Z,19.66
2016-04-12T12:33:45.524Z,19.71
2016-04-12T12:34:45.558Z,19.71
2016-04-12T12:35:45.576Z,19.64
2016-04-12T12:36:45.282Z,19.77
2016-04-12T12:37:45.597Z,19.86
2016-04-12T12:38:45.632Z,19.91
2016-04-12T12:39:45.681Z,19.88
2016-04-12T12:40:45.699Z,19.86
2016-04-12T12:41:45.717Z,19.89
2016-04-12T12:42:45.751Z,19.96
2016-04-12T12:43:45.770Z,20
2016-04-12T12:44:45.788Z,20
2016-04-12T12:45:45.823Z,19.99
2016-04-12T12:46:45.840Z,19.92
2016-04-12T12:47:45.858Z,19.92
2016-04-12T12:48:45.876Z,19.91
2016-04-12T12:49:46.208Z,19.84
2016-04-12T12:50:45.944Z,19.7
2016-04-12T12:51:45.948Z,19.67
2016-04-12T12:52:45.981Z,19.79
2016-04-12T12:53:46.014Z,19.89
2016-04-12T12:54:46.064Z,20
2016-04-12T12:55:46.052Z,20.19
2016-04-12T12:56:46.070Z,20.1
2016-04-12T12:57:46.104Z,20.21
2016-04-12T12:58:46.107Z,20.21
2016-04-12T12:59:46.141Z,20.32
2016-04-12T13:00:46.174Z,20.39
2016-04-12T13:01:46.193Z,20.41
2016-04-12T13:02:46.243Z,20.39
2016-04-12T13:03:46.229Z,20.28
2016-04-12T13:04:46.279Z,20.32
2016-04-12T13:05:46.282Z,20.37
2016-04-12T13:06:45.549Z,20.41
2016-04-12T13:07:46.334Z,20.55
2016-04-12T13:08:46.418Z,20.63
2016-04-12T13:09:46.404Z,20.51
2016-04-12T13:10:46.408Z,20.48
2016-04-12T13:11:46.441Z,20.41